Time;durP1;ratioP1;P1;durP2;ratioP2;P2;SDS_P1;SDS_P2;PMS_P1;PMS_P2;Temp;Humidity;BMP_temperature;BMP_pressure;BME280_temperature;BME280_humidity;BME280_pressure;Samples;Min_cycle;Max_cycle;Signal;HPM_P1;HPM_P2
2022/09/25 00:01:57;;;;;;;17.23;14.02;;;12.40;99.90;;;;;;4402273;27;9999938;-77
2022/09/25 00:04:23;;;;;;;16.17;13.65;;;12.40;99.90;;;;;;5112777;27;20487;-76
2022/09/25 00:06:48;;;;;;;18.27;14.15;;;12.40;99.90;;;;;;5119697;27;20416;-76
2022/09/25 00:09:19;;;;;;;17.77;13.90;;;12.40;99.90;;;;;;5111011;28;20110;-77
2022/09/25 00:11:44;;;;;;;19.45;14.43;;;12.40;99.90;;;;;;5123190;27;20027;-76
2022/09/25 00:14:10;;;;;;;19.83;15.23;;;12.30;99.90;;;;;;5117849;27;20414;-76
2022/09/25 00:16:36;;;;;;;18.15;13.90;;;12.30;99.90;;;;;;5116642;27;20027;-76
2022/09/25 00:21:51;;;;;;;19.67;15.07;;;12.30;99.90;;;;;;5117054;27;20026;-76
2022/09/25 00:24:17;;;;;;;25.52;18.10;;;12.30;99.90;;;;;;5123645;27;20023;-76
2022/09/25 00:26:43;;;;;;;22.98;18.05;;;12.30;99.90;;;;;;5130403;27;20392;-77
2022/09/25 00:29:16;;;;;;;23.10;17.90;;;12.30;99.90;;;;;;5118440;27;20024;-76
2022/09/25 00:31:42;;;;;;;29.35;21.50;;;12.30;99.90;;;;;;5121595;27;20034;-76
2022/09/25 00:34:09;;;;;;;25.25;19.63;;;12.30;99.90;;;;;;5123008;27;20027;-76
2022/09/25 00:36:34;;;;;;;22.33;17.23;;;12.30;99.90;;;;;;5115670;27;20487;-76
2022/09/25 00:39:00;;;;;;;21.80;17.40;;;12.30;99.90;;;;;;5124189;27;20036;-76
2022/09/25 00:41:30;;;;;;;21.60;17.38;;;12.30;99.90;;;;;;5122841;27;20043;-76
2022/09/25 00:43:57;;;;;;;24.20;18.88;;;12.30;99.90;;;;;;5112408;27;20739;-76
2022/09/25 00:46:43;;;;;;;23.52;18.05;;;12.30;99.90;;;;;;5117147;27;20125;-76
2022/09/25 00:49:16;;;;;;;22.85;17.80;;;12.30;99.90;;;;;;5134510;27;20066;-76
2022/09/25 00:51:46;;;;;;;22.88;18.15;;;12.30;99.90;;;;;;5132878;27;20019;-77
2022/09/25 00:54:17;;;;;;;21.85;17.40;;;12.30;99.90;;;;;;5122322;27;20530;-76
2022/09/25 00:56:46;;;;;;;23.05;18.17;;;12.30;99.90;;;;;;5121296;27;20042;-76
2022/09/25 00:59:19;;;;;;;23.58;18.50;;;12.30;99.90;;;;;;5124066;27;20047;-76
2022/09/25 01:01:45;;;;;;;22.83;18.45;;;12.30;99.90;;;;;;5124546;27;20031;-76
2022/09/25 01:04:11;;;;;;;23.13;18.30;;;12.30;99.90;;;;;;5116159;27;20031;-76
2022/09/25 01:06:38;;;;;;;25.92;19.35;;;12.30;99.90;;;;;;5115449;27;20076;-75
2022/09/25 01:09:04;;;;;;;26.33;19.65;;;12.30;99.90;;;;;;5141265;27;20025;-76
2022/09/25 01:11:29;;;;;;;29.52;22.20;;;12.30;99.90;;;;;;5128914;27;20020;-76
2022/09/25 01:13:59;;;;;;;27.42;21.50;;;12.30;99.90;;;;;;5109793;27;20038;-76
2022/09/25 01:16:51;;;;;;;30.73;22.90;;;12.30;99.90;;;;;;5113686;27;20032;-76
2022/09/25 01:19:28;;;;;;;27.65;22.45;;;12.30;99.90;;;;;;5124383;27;20458;-76
2022/09/25 01:22:10;;;;;;;28.42;20.75;;;12.30;99.90;;;;;;5118465;27;20081;-77
2022/09/25 01:24:59;;;;;;;25.42;19.55;;;12.40;99.90;;;;;;5125319;27;20027;-76
2022/09/25 01:27:43;;;;;;;30.10;22.52;;;12.40;99.90;;;;;;5118375;27;20034;-77
2022/09/25 01:30:19;;;;;;;25.70;20.02;;;12.40;99.90;;;;;;5122300;27;20083;-76
2022/09/25 01:33:09;;;;;;;24.45;19.13;;;12.30;99.90;;;;;;5143598;27;20034;-76
2022/09/25 01:36:13;;;;;;;27.65;19.75;;;12.40;99.90;;;;;;5131301;27;20050;-76
2022/09/25 01:39:03;;;;;;;27.10;20.80;;;12.30;99.90;;;;;;5120216;27;20023;-75
2022/09/25 01:41:36;;;;;;;33.45;24.15;;;12.30;99.90;;;;;;5118916;27;20051;-76
2022/09/25 01:44:06;;;;;;;31.75;24.35;;;12.30;99.90;;;;;;5115337;27;20172;-76
2022/09/25 01:46:39;;;;;;;35.72;26.42;;;12.30;99.90;;;;;;5116675;27;20039;-76
2022/09/25 01:49:16;;;;;;;38.08;27.08;;;12.30;99.90;;;;;;5116627;27;20035;-76
2022/09/25 01:51:47;;;;;;;33.10;25.20;;;12.30;99.90;;;;;;5121407;27;20030;-76
2022/09/25 01:54:33;;;;;;;36.28;27.40;;;12.30;99.90;;;;;;5124442;27;20034;-76
2022/09/25 01:57:17;;;;;;;37.58;27.75;;;12.30;99.90;;;;;;5115008;27;20151;-76
2022/09/25 01:59:48;;;;;;;39.40;28.73;;;12.30;99.90;;;;;;5119850;27;20387;-76
2022/09/25 02:02:18;;;;;;;38.75;28.38;;;12.30;99.90;;;;;;5118694;27;20084;-76
2022/09/25 02:05:08;;;;;;;39.92;28.42;;;12.30;99.90;;;;;;5121155;27;20035;-75
2022/09/25 02:07:47;;;;;;;41.83;28.08;;;12.40;99.90;;;;;;5138075;27;20091;-76
2022/09/25 02:10:25;;;;;;;36.25;27.23;;;12.30;99.90;;;;;;5127992;27;20764;-76
2022/09/25 02:12:55;;;;;;;37.60;27.48;;;12.30;99.90;;;;;;5133609;27;23128;-75
2022/09/25 02:15:30;;;;;;;38.15;28.52;;;12.30;99.90;;;;;;5124768;27;20037;-76
2022/09/25 02:20:57;;;;;;;40.80;29.85;;;12.30;99.90;;;;;;5110668;27;20038;-76
2022/09/25 02:23:41;;;;;;;38.78;28.38;;;12.30;99.90;;;;;;5141522;27;20079;-76
2022/09/25 02:26:13;;;;;;;41.45;29.88;;;12.30;99.90;;;;;;5119500;27;20046;-76
2022/09/25 02:28:39;;;;;;;38.33;28.13;;;12.30;99.90;;;;;;5128458;27;20514;-76
2022/09/25 02:31:08;;;;;;;36.92;27.40;;;12.30;99.90;;;;;;5132368;27;20030;-76
2022/09/25 02:33:34;;;;;;;36.83;28.20;;;12.30;99.90;;;;;;5128334;27;20540;-76
2022/09/25 02:36:02;;;;;;;43.72;29.27;;;12.30;99.90;;;;;;5116889;27;20035;-76
2022/09/25 02:38:30;;;;;;;39.85;28.20;;;12.30;99.90;;;;;;5110640;27;20475;-76
2022/09/25 02:41:08;;;;;;;41.42;28.98;;;12.30;99.90;;;;;;5133650;27;20055;-76
2022/09/25 02:44:03;;;;;;;39.63;28.08;;;12.20;99.90;;;;;;5122710;27;20035;-76
2022/09/25 02:46:43;;;;;;;41.22;30.40;;;12.20;99.90;;;;;;5115038;27;20026;-74
2022/09/25 02:49:41;;;;;;;37.88;27.90;;;12.20;99.90;;;;;;5125390;27;20019;-76
2022/09/25 02:52:15;;;;;;;37.83;28.73;;;12.20;99.90;;;;;;5081114;27;20122;-76
2022/09/25 02:54:47;;;;;;;40.35;29.38;;;12.20;99.90;;;;;;5124184;27;20092;-76
2022/09/25 02:57:26;;;;;;;41.25;28.50;;;12.20;99.90;;;;;;5110797;27;20505;-76
2022/09/25 02:59:57;;;;;;;38.80;26.83;;;12.20;99.90;;;;;;5120384;27;20432;-76
2022/09/25 03:02:25;;;;;;;34.40;25.33;;;12.20;99.90;;;;;;5105641;27;20027;-75
2022/09/25 03:04:52;;;;;;;35.70;25.08;;;12.20;99.90;;;;;;5138912;27;20554;-75
2022/09/25 03:07:19;;;;;;;34.33;24.95;;;12.20;99.90;;;;;;5122693;27;20071;-76
2022/09/25 03:09:48;;;;;;;35.85;25.35;;;12.20;99.90;;;;;;5124661;27;20478;-76
2022/09/25 03:12:14;;;;;;;33.70;24.83;;;12.20;99.90;;;;;;5125371;27;20033;-76
2022/09/25 03:14:40;;;;;;;33.90;23.90;;;12.20;99.90;;;;;;5124117;27;20114;-75
2022/09/25 03:17:08;;;;;;;33.00;24.10;;;12.20;99.90;;;;;;5112364;27;20122;-76
2022/09/25 03:19:34;;;;;;;37.88;24.80;;;12.20;99.90;;;;;;5115655;27;20023;-76
2022/09/25 03:22:00;;;;;;;31.83;23.70;;;12.20;99.90;;;;;;5121937;27;20146;-76
2022/09/25 03:24:26;;;;;;;30.15;23.02;;;12.20;99.90;;;;;;5124961;27;20018;-76
2022/09/25 03:26:52;;;;;;;33.65;24.75;;;12.20;99.90;;;;;;5127384;27;20076;-77
2022/09/25 03:29:19;;;;;;;33.47;23.95;;;12.20;99.90;;;;;;5130259;27;20050;-76
2022/09/25 03:31:44;;;;;;;33.75;24.27;;;12.20;99.90;;;;;;5139435;27;20030;-77
2022/09/25 03:34:15;;;;;;;34.80;24.48;;;12.20;99.90;;;;;;5138608;27;20068;-76
2022/09/25 03:36:41;;;;;;;32.85;24.63;;;12.20;99.90;;;;;;5139302;27;20054;-76
2022/09/25 03:39:09;;;;;;;36.95;25.63;;;12.20;99.90;;;;;;5112086;27;20450;-76
2022/09/25 03:41:35;;;;;;;33.67;24.38;;;12.20;99.90;;;;;;5126466;27;20526;-75
2022/09/25 03:44:01;;;;;;;36.97;25.25;;;12.20;99.90;;;;;;5117162;27;20027;-76
2022/09/25 03:46:29;;;;;;;32.53;23.45;;;12.20;99.90;;;;;;5123122;27;20030;-76
2022/09/25 03:48:55;;;;;;;33.22;24.45;;;12.10;99.90;;;;;;5132802;27;20031;-76
2022/09/25 03:51:23;;;;;;;32.05;24.02;;;12.10;99.90;;;;;;5134603;27;20030;-75
2022/09/25 03:53:49;;;;;;;30.38;22.77;;;12.10;99.90;;;;;;5118072;27;20092;-75
2022/09/25 03:56:21;;;;;;;32.65;24.52;;;12.10;99.90;;;;;;5114746;27;20503;-76
2022/09/25 03:58:48;;;;;;;38.33;26.53;;;12.10;99.90;;;;;;5106140;27;20096;-76
2022/09/25 04:01:15;;;;;;;36.78;26.40;;;12.10;99.90;;;;;;5119835;27;20122;-76
2022/09/25 04:03:44;;;;;;;39.13;26.13;;;12.10;99.90;;;;;;5120440;27;20139;-76
2022/09/25 04:06:10;;;;;;;37.47;26.48;;;12.10;99.90;;;;;;5122092;27;20031;-76
2022/09/25 04:08:36;;;;;;;35.35;25.98;;;12.20;99.90;;;;;;5124729;27;20077;-76
2022/09/25 04:11:02;;;;;;;38.65;27.25;;;12.20;99.90;;;;;;5142419;27;20023;-76
2022/09/25 04:13:35;;;;;;;39.95;26.52;;;12.10;99.90;;;;;;5135402;27;20055;-75
2022/09/25 04:16:02;;;;;;;33.72;24.58;;;12.10;99.90;;;;;;5113258;27;20038;-76
2022/09/25 04:18:30;;;;;;;35.25;24.48;;;12.10;99.90;;;;;;5126301;27;20054;-76
2022/09/25 04:21:03;;;;;;;35.50;24.40;;;12.10;99.90;;;;;;5131169;27;20059;-76
2022/09/25 04:23:29;;;;;;;35.35;24.35;;;12.10;99.90;;;;;;5120879;27;20031;-75
2022/09/25 04:25:55;;;;;;;37.28;25.25;;;12.10;99.90;;;;;;5121840;27;20042;-76
2022/09/25 04:28:22;;;;;;;31.42;23.25;;;12.20;99.90;;;;;;5126989;27;20129;-76
2022/09/25 04:30:48;;;;;;;34.28;24.00;;;12.10;99.90;;;;;;5126754;27;20031;-76
2022/09/25 04:36:00;;;;;;;38.53;26.00;;;12.10;99.90;;;;;;5129758;27;20075;-76
2022/09/25 04:38:25;;;;;;;33.30;23.90;;;12.10;99.90;;;;;;5108582;27;20483;-76
2022/09/25 04:40:51;;;;;;;31.38;22.73;;;12.10;99.90;;;;;;5122846;27;20036;-76
2022/09/25 04:43:17;;;;;;;32.72;21.67;;;12.10;99.90;;;;;;5114045;28;20038;-76
2022/09/25 04:45:42;;;;;;;33.55;23.58;;;12.10;99.90;;;;;;5105969;28;20035;-76
2022/09/25 04:48:08;;;;;;;30.42;21.90;;;12.10;99.90;;;;;;5099923;28;20032;-76
2022/09/25 04:50:34;;;;;;;28.92;21.95;;;12.10;99.90;;;;;;5112046;28;20024;-76
2022/09/25 04:53:00;;;;;;;35.28;25.05;;;12.10;99.90;;;;;;5101302;28;20459;-76
2022/09/25 04:55:26;;;;;;;35.53;25.02;;;12.00;99.90;;;;;;5086929;28;20055;-76
2022/09/25 04:58:00;;;;;;;33.88;24.50;;;12.10;99.90;;;;;;5096762;28;20050;-76
2022/09/25 05:00:31;;;;;;;31.58;22.02;;;12.00;99.90;;;;;;5103349;28;20125;-75
2022/09/25 05:02:57;;;;;;;31.85;23.20;;;12.00;99.90;;;;;;5102510;27;20031;-76
2022/09/25 05:05:27;;;;;;;33.65;22.17;;;12.00;99.90;;;;;;5108696;27;20565;-76
2022/09/25 05:07:57;;;;;;;32.65;22.20;;;12.00;99.90;;;;;;5098382;27;20050;-76
2022/09/25 05:10:29;;;;;;;34.00;23.75;;;12.00;99.90;;;;;;5115031;27;20407;-75
2022/09/25 05:12:59;;;;;;;35.17;23.20;;;12.00;99.90;;;;;;5093562;27;20013;-76
2022/09/25 05:15:27;;;;;;;30.85;22.20;;;12.00;99.90;;;;;;5102398;28;20034;-76
2022/09/25 05:18:00;;;;;;;29.90;21.80;;;12.00;99.90;;;;;;5089057;28;20019;-76
2022/09/25 05:20:25;;;;;;;29.20;21.63;;;12.00;99.90;;;;;;5097736;28;20036;-76
2022/09/25 05:22:57;;;;;;;28.52;21.42;;;12.00;99.90;;;;;;5093674;28;20027;-76
2022/09/25 05:25:25;;;;;;;31.45;23.63;;;12.00;99.90;;;;;;5096624;28;20020;-76
2022/09/25 05:27:54;;;;;;;30.30;21.38;;;12.00;99.90;;;;;;5096792;27;20035;-75
2022/09/25 05:30:20;;;;;;;27.85;20.38;;;12.00;99.90;;;;;;5104769;28;20020;-76
2022/09/25 05:32:48;;;;;;;28.17;20.65;;;12.00;99.90;;;;;;5110668;27;20027;-76
2022/09/25 05:35:15;;;;;;;30.35;21.50;;;12.00;99.90;;;;;;5109870;27;20463;-76
2022/09/25 05:37:41;;;;;;;30.90;22.30;;;12.00;99.90;;;;;;5110393;27;20516;-75
2022/09/25 05:40:07;;;;;;;33.28;23.13;;;12.00;99.90;;;;;;5111884;27;20028;-76
2022/09/25 05:42:33;;;;;;;35.13;24.38;;;12.00;99.90;;;;;;5107182;27;20050;-76
2022/09/25 05:44:59;;;;;;;32.13;23.25;;;12.00;99.90;;;;;;5119762;27;20035;-76
2022/09/25 05:47:25;;;;;;;30.73;22.25;;;12.00;99.90;;;;;;5104943;27;20499;-76
2022/09/25 05:49:50;;;;;;;31.00;22.58;;;12.00;99.90;;;;;;5097259;27;20670;-76
2022/09/25 05:52:16;;;;;;;31.50;23.42;;;12.00;99.90;;;;;;5107013;27;20023;-76
2022/09/25 05:54:41;;;;;;;34.08;23.85;;;12.00;99.90;;;;;;5087304;27;20032;-76
2022/09/25 05:57:07;;;;;;;32.30;22.80;;;12.00;99.90;;;;;;5093842;27;20028;-77
2022/09/25 05:59:33;;;;;;;33.85;23.33;;;12.00;99.90;;;;;;5096027;27;20038;-76
2022/09/25 06:01:59;;;;;;;34.42;23.83;;;12.00;99.90;;;;;;5103015;27;20061;-76
2022/09/25 06:04:25;;;;;;;32.00;23.27;;;12.00;99.90;;;;;;5097027;27;20023;-76
2022/09/25 06:06:51;;;;;;;32.05;22.50;;;12.00;99.90;;;;;;5099353;27;20199;-76
2022/09/25 06:09:17;;;;;;;31.95;23.15;;;12.00;99.90;;;;;;5090581;27;20031;-76
2022/09/25 06:11:46;;;;;;;30.13;22.27;;;12.00;99.90;;;;;;5095647;27;20034;-76
2022/09/25 06:14:13;;;;;;;29.52;21.95;;;12.00;99.90;;;;;;5104128;27;20096;-76
2022/09/25 06:16:39;;;;;;;29.63;21.40;;;12.00;99.90;;;;;;5112346;27;20031;-76
2022/09/25 06:19:04;;;;;;;28.77;21.42;;;12.00;99.90;;;;;;5097797;27;20500;-76
2022/09/25 06:21:30;;;;;;;27.75;20.90;;;12.00;99.90;;;;;;5101100;27;20078;-76
2022/09/25 06:23:55;;;;;;;30.08;20.88;;;12.00;99.90;;;;;;5101257;27;20092;-76
2022/09/25 06:26:22;;;;;;;34.05;23.10;;;12.00;99.90;;;;;;5105151;27;20032;-76
2022/09/25 06:28:47;;;;;;;31.92;22.08;;;12.00;99.90;;;;;;5101059;27;20612;-83
2022/09/25 06:31:13;;;;;;;32.50;22.88;;;12.00;99.90;;;;;;5099668;27;20075;-81
2022/09/25 06:33:39;;;;;;;33.83;23.73;;;12.00;99.90;;;;;;5098339;28;20024;-81
2022/09/25 06:36:05;;;;;;;34.20;24.25;;;12.00;99.90;;;;;;5109792;27;20035;-82
2022/09/25 06:38:33;;;;;;;31.83;23.10;;;12.10;99.90;;;;;;4761193;27;9999822;-78
2022/09/25 06:40:59;;;;;;;35.55;25.30;;;12.10;99.90;;;;;;5102302;27;20069;-80
2022/09/25 06:43:26;;;;;;;35.28;26.02;;;12.10;99.90;;;;;;5109144;27;20028;-82
2022/09/25 06:45:51;;;;;;;31.08;23.65;;;12.20;99.90;;;;;;5093126;27;20032;-81
2022/09/25 06:48:17;;;;;;;31.55;23.08;;;12.20;99.90;;;;;;5089718;27;20035;-73
2022/09/25 06:50:44;;;;;;;31.30;23.02;;;12.20;99.90;;;;;;5091617;27;20085;-74
2022/09/25 06:53:11;;;;;;;34.13;23.23;;;12.20;99.90;;;;;;5098948;27;20491;-73
2022/09/25 06:55:37;;;;;;;32.42;22.63;;;12.20;99.90;;;;;;5107557;27;20031;-73
2022/09/25 06:58:04;;;;;;;32.13;23.17;;;12.30;99.90;;;;;;5088594;27;20058;-75
2022/09/25 07:00:31;;;;;;;33.40;22.38;;;12.30;99.90;;;;;;5116587;27;20039;-74
2022/09/25 07:05:43;;;;;;;27.65;20.42;;;12.30;99.90;;;;;;5095637;27;20091;-73
2022/09/25 07:08:12;;;;;;;23.75;17.98;;;12.40;99.90;;;;;;5095930;27;20511;-74
2022/09/25 07:10:38;;;;;;;25.88;19.40;;;12.40;99.90;;;;;;5105346;27;20019;-73
2022/09/25 07:13:04;;;;;;;26.15;17.88;;;12.40;99.90;;;;;;5118475;27;20549;-76
2022/09/25 07:15:30;;;;;;;26.20;17.00;;;12.50;99.90;;;;;;5109644;27;20030;-73
2022/09/25 07:17:55;;;;;;;25.02;16.75;;;12.50;99.90;;;;;;5119742;27;20035;-75
2022/09/25 07:20:21;;;;;;;23.58;16.35;;;12.50;99.90;;;;;;5114387;27;20032;-75
2022/09/25 07:22:47;;;;;;;20.30;15.68;;;12.50;99.90;;;;;;5114690;27;20461;-74
2022/09/25 07:25:13;;;;;;;22.95;15.80;;;12.50;99.90;;;;;;5094278;28;20024;-74
2022/09/25 07:27:39;;;;;;;23.58;16.40;;;12.60;99.90;;;;;;5095982;27;20126;-74
2022/09/25 07:30:07;;;;;;;20.60;15.15;;;12.60;99.90;;;;;;5104914;27;20128;-73
2022/09/25 07:32:33;;;;;;;21.60;15.02;;;12.60;99.90;;;;;;5107360;27;20027;-73
2022/09/25 07:34:59;;;;;;;19.63;14.32;;;12.60;99.90;;;;;;5109032;27;20490;-74
2022/09/25 07:37:24;;;;;;;23.38;13.60;;;12.70;99.90;;;;;;5120239;27;20035;-74
2022/09/25 07:39:50;;;;;;;17.75;12.23;;;12.70;99.90;;;;;;5091413;27;20065;-77
2022/09/25 07:42:16;;;;;;;22.10;12.57;;;12.70;99.90;;;;;;5104053;27;20724;-77
2022/09/25 07:44:42;;;;;;;16.77;10.60;;;12.80;99.90;;;;;;5102189;27;20249;-76
2022/09/25 07:47:07;;;;;;;19.02;10.43;;;12.80;99.90;;;;;;5085199;28;20875;-77
2022/09/25 07:49:33;;;;;;;18.73;10.85;;;12.90;99.90;;;;;;5100153;28;20046;-78
2022/09/25 07:52:00;;;;;;;18.77;9.88;;;12.90;99.90;;;;;;5108596;28;20111;-77
2022/09/25 07:54:25;;;;;;;17.00;10.43;;;13.00;99.90;;;;;;5119914;28;20027;-77
2022/09/25 07:56:51;;;;;;;15.23;9.55;;;13.10;99.90;;;;;;5094715;28;20020;-76
2022/09/25 07:59:17;;;;;;;19.38;8.75;;;13.10;99.90;;;;;;5114084;28;20116;-84
2022/09/25 08:01:42;;;;;;;11.73;8.43;;;13.10;99.90;;;;;;5097544;28;20028;-80
2022/09/25 08:04:08;;;;;;;17.23;8.68;;;13.10;99.90;;;;;;5116636;28;20031;-80
2022/09/25 08:06:34;;;;;;;18.45;7.63;;;13.20;99.90;;;;;;5114075;28;20034;-78
2022/09/25 08:09:00;;;;;;;9.98;6.93;;;13.20;99.90;;;;;;5119318;28;20031;-77
2022/09/25 08:11:26;;;;;;;14.63;6.43;;;13.10;99.90;;;;;;5112096;28;20023;-83
2022/09/25 08:13:52;;;;;;;11.77;6.68;;;13.20;99.90;;;;;;5092556;28;20031;-82
2022/09/25 08:16:21;;;;;;;11.02;5.90;;;13.20;99.90;;;;;;5099958;28;20074;-83
2022/09/25 08:18:48;;;;;;;11.68;5.22;;;13.30;99.90;;;;;;5090216;28;20111;-84
2022/09/25 08:21:16;;;;;;;10.77;5.60;;;13.30;99.90;;;;;;5093785;28;20035;-83
2022/09/25 08:23:44;;;;;;;13.75;5.90;;;13.30;99.90;;;;;;5094035;28;20114;-84
2022/09/25 08:26:09;;;;;;;11.98;5.80;;;13.40;99.90;;;;;;5108346;28;20035;-84
2022/09/25 08:28:35;;;;;;;13.85;5.50;;;13.40;99.90;;;;;;5105578;28;20474;-84
2022/09/25 08:31:02;;;;;;;11.30;5.82;;;13.40;99.90;;;;;;5112119;28;20114;-82
2022/09/25 08:33:28;;;;;;;12.77;5.22;;;13.50;99.90;;;;;;5106353;27;20034;-81
2022/09/25 08:35:56;;;;;;;13.80;5.35;;;13.40;99.90;;;;;;5103000;27;20023;-78
2022/09/25 08:38:23;;;;;;;11.25;4.40;;;13.40;99.90;;;;;;5104614;27;20027;-80
2022/09/25 08:40:55;;;;;;;10.13;4.60;;;13.40;99.90;;;;;;5102741;27;20747;-79
2022/09/25 08:43:22;;;;;;;10.02;4.97;;;13.50;99.90;;;;;;5113958;27;20035;-79
2022/09/25 08:49:04;;;;;;;10.30;4.20;;;13.50;99.90;;;;;;5106974;27;20684;-80
2022/09/25 08:51:37;;;;;;;11.45;4.25;;;13.60;99.90;;;;;;5098620;27;20070;-78
2022/09/25 08:54:04;;;;;;;12.05;4.47;;;13.60;99.90;;;;;;5100926;27;20166;-79
2022/09/25 08:56:32;;;;;;;7.25;3.63;;;13.60;99.90;;;;;;5113592;27;20027;-79
2022/09/25 08:59:25;;;;;;;16.10;4.15;;;13.50;99.90;;;;;;5108497;27;20043;-79
2022/09/25 09:01:55;;;;;;;12.17;4.07;;;13.50;99.90;;;;;;5107522;27;20091;-79
2022/09/25 09:04:28;;;;;;;12.63;4.20;;;13.50;99.90;;;;;;5116012;27;20031;-80
2022/09/25 09:07:01;;;;;;;8.23;3.60;;;13.50;99.90;;;;;;5113422;27;20031;-80
2022/09/25 09:09:50;;;;;;;14.43;4.00;;;13.50;99.90;;;;;;5111286;27;20494;-80
2022/09/25 09:12:47;;;;;;;12.60;3.85;;;13.50;99.90;;;;;;5100256;27;20118;-79
2022/09/25 09:15:22;;;;;;;10.77;3.95;;;13.50;99.90;;;;;;5073736;27;20040;-80
2022/09/25 09:17:47;;;;;;;9.85;4.00;;;13.50;99.90;;;;;;5105344;27;20023;-80
2022/09/25 09:20:21;;;;;;;12.85;4.60;;;13.50;99.90;;;;;;5108942;27;20500;-80
2022/09/25 09:22:52;;;;;;;11.27;4.05;;;13.40;99.90;;;;;;5109873;27;20463;-80
2022/09/25 09:25:25;;;;;;;12.45;4.68;;;13.40;99.90;;;;;;5108842;27;20074;-80
2022/09/25 09:28:02;;;;;;;17.65;4.50;;;13.40;99.90;;;;;;5107796;27;20570;-80
2022/09/25 09:30:36;;;;;;;13.63;4.10;;;13.30;99.90;;;;;;5113527;27;20589;-80
2022/09/25 09:33:19;;;;;;;11.82;4.35;;;13.30;99.90;;;;;;5124043;27;20268;-81
2022/09/25 09:36:05;;;;;;;10.00;4.07;;;13.40;99.90;;;;;;5100072;27;20392;-81
2022/09/25 09:38:41;;;;;;;11.30;4.03;;;13.40;99.90;;;;;;5093168;27;20028;-81
2022/09/25 09:41:11;;;;;;;10.77;3.60;;;13.40;99.90;;;;;;5090762;27;20056;-81
2022/09/25 09:43:48;;;;;;;10.55;3.15;;;13.50;99.90;;;;;;5113688;27;20019;-81
2022/09/25 09:46:33;;;;;;;11.98;3.97;;;13.50;99.90;;;;;;5141347;27;20031;-80
2022/09/25 09:49:11;;;;;;;10.00;3.67;;;13.50;99.90;;;;;;5129643;27;20046;-81
2022/09/25 09:51:37;;;;;;;10.63;3.50;;;13.50;99.90;;;;;;5130450;27;20027;-76
2022/09/25 09:54:12;;;;;;;20.40;3.50;;;13.50;99.90;;;;;;5135868;27;20561;-76
2022/09/25 09:56:41;;;;;;;12.10;3.53;;;13.50;99.90;;;;;;5113604;27;20031;-83
2022/09/25 09:59:38;;;;;;;10.40;3.20;;;13.50;99.90;;;;;;5109544;27;20046;-84
2022/09/25 10:02:18;;;;;;;14.88;3.65;;;13.50;99.90;;;;;;5121623;27;20060;-85
2022/09/25 10:04:46;;;;;;;11.32;3.28;;;13.40;99.90;;;;;;5111197;27;20066;-82
2022/09/25 10:07:17;;;;;;;14.95;2.92;;;13.40;99.90;;;;;;5120075;27;20039;-82
2022/09/25 10:09:42;;;;;;;10.77;3.05;;;13.40;99.90;;;;;;5122396;27;20035;-83
2022/09/25 10:12:20;;;;;;;8.95;3.30;;;13.40;99.90;;;;;;5128120;27;20029;-83
2022/09/25 10:14:47;;;;;;;11.18;3.20;;;13.40;99.90;;;;;;5124061;27;20532;-81
2022/09/25 10:17:13;;;;;;;9.80;3.08;;;13.40;99.90;;;;;;5120751;27;20118;-82
2022/09/25 10:19:56;;;;;;;9.75;2.53;;;13.40;99.90;;;;;;5117140;27;20035;-82
2022/09/25 10:22:44;;;;;;;10.25;2.60;;;13.30;99.90;;;;;;5119125;27;20031;-81
2022/09/25 10:25:10;;;;;;;7.03;2.70;;;13.40;99.90;;;;;;5106054;27;20055;-83
2022/09/25 10:27:40;;;;;;;14.02;2.88;;;13.30;99.90;;;;;;5120633;27;20114;-84
2022/09/25 10:30:19;;;;;;;9.25;2.92;;;13.40;99.90;;;;;;5127053;27;20031;-81
2022/09/25 10:33:07;;;;;;;9.65;3.40;;;13.30;99.90;;;;;;5107274;27;20108;-81
2022/09/25 10:35:38;;;;;;;8.93;3.38;;;13.30;99.90;;;;;;5125454;27;20192;-84
2022/09/25 10:38:15;;;;;;;9.57;2.65;;;13.30;99.90;;;;;;5117800;27;20061;-85
2022/09/25 10:40:43;;;;;;;12.20;2.90;;;13.30;99.90;;;;;;5108039;27;20031;-84
2022/09/25 10:43:22;;;;;;;9.63;2.90;;;13.30;99.90;;;;;;5135530;27;20380;-86
2022/09/25 10:45:51;;;;;;;8.85;2.80;;;13.40;99.90;;;;;;5124559;27;20030;-86
2022/09/25 10:51:20;;;;;;;8.73;3.20;;;13.40;99.90;;;;;;5120216;27;20043;-87
2022/09/25 10:54:21;;;;;;;10.43;2.90;;;13.50;99.90;;;;;;5141272;27;20015;-86
2022/09/25 10:56:48;;;;;;;13.20;2.95;;;13.50;99.90;;;;;;5126576;27;20042;-86
2022/09/25 10:59:19;;;;;;;6.70;2.38;;;13.50;99.90;;;;;;5126861;27;20831;-86
2022/09/25 11:01:49;;;;;;;8.50;2.72;;;13.50;99.90;;;;;;5123004;27;20099;-85
2022/09/25 11:04:23;;;;;;;7.90;2.53;;;13.50;99.90;;;;;;5124453;27;20049;-84
2022/09/25 11:06:57;;;;;;;11.20;2.80;;;13.50;99.90;;;;;;5129398;27;20491;-83
2022/09/25 11:09:23;;;;;;;;;;;13.60;99.90;;;;;;5126399;27;20027;-82
2022/09/25 11:11:52;;;;;;;8.43;2.50;;;13.60;99.90;;;;;;5127281;27;19910;-83
2022/09/25 11:14:31;;;;;;;13.18;2.65;;;13.60;99.90;;;;;;5116205;27;20023;-84
2022/09/25 11:16:58;;;;;;;9.48;2.92;;;13.60;99.90;;;;;;5122632;27;20028;-79
2022/09/25 11:19:27;;;;;;;13.00;2.83;;;13.60;99.90;;;;;;5128855;27;20027;-79
2022/09/25 11:21:59;;;;;;;12.50;3.33;;;13.70;99.90;;;;;;5120967;27;20019;-79
2022/09/25 11:24:50;;;;;;;11.73;2.85;;;13.70;99.90;;;;;;5115908;27;20570;-76
2022/09/25 11:27:42;;;;;;;9.40;3.15;;;13.70;99.90;;;;;;5119167;27;20482;-80
2022/09/25 11:30:20;;;;;;;6.43;2.25;;;13.80;99.90;;;;;;5130357;27;20039;-80
2022/09/25 11:33:13;;;;;;;8.73;3.13;;;13.70;99.90;;;;;;5126227;27;20026;-81
2022/09/25 11:36:01;;;;;;;8.63;3.23;;;13.80;99.90;;;;;;5134349;27;20144;-81
2022/09/25 11:42:17;;;;;;;11.32;3.47;;;13.80;99.90;;;;;;5033738;28;20061;-80
2022/09/25 11:45:15;;;;;;;9.32;3.47;;;13.80;99.90;;;;;;5060060;28;20039;-80
2022/09/25 11:47:52;;;;;;;9.60;3.42;;;13.80;99.90;;;;;;5046170;28;20484;-80
2022/09/25 11:50:21;;;;;;;8.10;3.42;;;13.70;99.90;;;;;;5132990;27;20106;-80
2022/09/25 11:53:11;;;;;;;9.65;3.55;;;13.70;99.90;;;;;;5133837;27;20027;-80
2022/09/25 11:55:53;;;;;;;10.77;3.67;;;13.70;99.90;;;;;;5110447;27;20331;-80
2022/09/25 11:58:30;;;;;;;10.30;3.45;;;13.70;99.90;;;;;;5127183;27;20088;-80
2022/09/25 12:01:17;;;;;;;9.85;3.40;;;13.70;99.90;;;;;;5114078;27;20024;-80
2022/09/25 12:03:46;;;;;;;9.95;3.38;;;13.70;99.90;;;;;;5107231;28;20043;-80
2022/09/25 12:06:43;;;;;;;7.78;3.35;;;13.70;99.90;;;;;;5111282;27;20035;-80
2022/09/25 12:09:15;;;;;;;9.13;3.22;;;13.70;99.90;;;;;;5109922;27;20097;-80
2022/09/25 12:12:06;;;;;;;10.20;3.22;;;13.70;99.90;;;;;;5133351;27;20034;-80
2022/09/25 12:14:34;;;;;;;11.88;3.60;;;13.70;99.90;;;;;;5115232;27;20028;-80
2022/09/25 12:17:24;;;;;;;6.55;2.95;;;13.70;99.90;;;;;;5125536;27;20035;-81
2022/09/25 12:20:24;;;;;;;7.18;3.08;;;13.70;99.90;;;;;;5150123;27;20156;-80
2022/09/25 12:23:36;;;;;;;7.70;3.17;;;13.70;99.90;;;;;;5135858;27;20026;-80
2022/09/25 12:26:15;;;;;;;6.57;2.97;;;13.70;99.90;;;;;;5130273;27;20084;-80
2022/09/25 12:29:25;;;;;;;9.35;4.28;;;13.80;99.90;;;;;;5122592;27;20517;-81
2022/09/25 12:32:26;;;;;;;13.75;6.10;;;13.80;99.90;;;;;;5120986;27;20475;-80
2022/09/25 12:35:33;;;;;;;12.27;5.65;;;13.80;99.90;;;;;;5118663;27;20098;-81
2022/09/25 12:38:33;;;;;;;12.10;4.60;;;13.80;99.90;;;;;;5130469;27;20031;-80
2022/09/25 12:41:15;;;;;;;8.20;3.35;;;13.90;99.90;;;;;;5091694;27;20046;-80
2022/09/25 12:43:56;;;;;;;6.72;2.67;;;13.90;99.90;;;;;;5133773;27;20039;-80
2022/09/25 12:46:31;;;;;;;9.63;2.65;;;13.90;99.90;;;;;;5114244;27;20065;-80
2022/09/25 12:49:06;;;;;;;10.38;2.47;;;14.00;99.90;;;;;;5122742;27;20037;-80
2022/09/25 12:51:39;;;;;;;6.75;2.28;;;14.00;99.90;;;;;;5126256;27;20545;-80
2022/09/25 12:54:25;;;;;;;8.30;2.58;;;14.00;99.90;;;;;;5133171;27;20041;-80
2022/09/25 12:57:12;;;;;;;5.47;2.53;;;13.90;99.90;;;;;;5125106;27;20062;-80
2022/09/25 12:59:43;;;;;;;6.90;2.40;;;14.00;99.90;;;;;;5136731;27;20020;-80
2022/09/25 13:02:08;;;;;;;8.75;2.70;;;13.90;99.90;;;;;;5112576;27;20020;-79
2022/09/25 13:04:50;;;;;;;9.82;2.60;;;13.90;99.90;;;;;;5132486;27;20031;-79
2022/09/25 13:07:40;;;;;;;7.50;2.30;;;13.90;99.90;;;;;;5113541;27;20059;-80
2022/09/25 13:10:19;;;;;;;5.43;2.30;;;13.90;99.90;;;;;;5130506;27;20034;-80
2022/09/25 13:12:46;;;;;;;8.63;2.22;;;13.90;99.90;;;;;;5151779;27;20466;-79
2022/09/25 13:15:14;;;;;;;6.03;2.30;;;13.90;99.90;;;;;;5142860;27;20030;-81
2022/09/25 13:17:40;;;;;;;5.38;2.40;;;13.80;99.90;;;;;;5131635;27;20035;-81
2022/09/25 13:20:24;;;;;;;5.70;2.22;;;13.80;99.90;;;;;;5120970;27;20141;-81